createdAt,value
2018-09-04T08:15:02.446Z,20.69
2018-09-04T08:15:49.013Z,20.62
2018-09-04T08:16:49.092Z,20.52
2018-09-04T08:17:49.094Z,20.41
2018-09-04T08:18:49.054Z,20.55
2018-09-04T08:19:49.042Z,20.67
2018-09-04T08:20:49.123Z,20.67
2018-09-04T08:21:49.080Z,20.52
2018-09-04T08:22:49.063Z,20.54
2018-09-04T08:23:49.076Z,20.67
2018-09-04T08:24:49.077Z,20.70
2018-09-04T08:25:49.101Z,20.58
2018-09-04T08:26:49.106Z,20.74
2018-09-04T08:27:49.102Z,20.92
2018-09-04T08:28:49.108Z,20.99
2018-09-04T08:29:49.118Z,21.09
2018-09-04T08:30:49.126Z,20.95
2018-09-04T08:31:49.130Z,20.98
2018-09-04T08:32:49.168Z,20.94
2018-09-04T08:33:49.142Z,21.17
2018-09-04T08:34:49.142Z,21.25
2018-09-04T08:35:49.151Z,21.19
2018-09-04T08:36:49.163Z,21.17
2018-09-04T08:37:49.165Z,21.28
2018-09-04T08:38:49.176Z,21.35
2018-09-04T08:39:49.218Z,21.43
2018-09-04T08:40:49.186Z,21.25
2018-09-04T08:41:49.191Z,21.40
2018-09-04T08:42:49.201Z,21.32
2018-09-04T08:43:49.207Z,21.50
2018-09-04T08:44:49.217Z,21.49
2018-09-04T08:45:49.219Z,21.35
2018-09-04T08:46:49.233Z,21.49
2018-09-04T08:47:49.269Z,21.44
2018-09-04T08:48:49.249Z,21.50
2018-09-04T08:49:49.250Z,21.49
2018-09-04T08:50:49.255Z,21.54
2018-09-04T08:51:49.262Z,21.56
2018-09-04T08:52:49.272Z,21.53
2018-09-04T08:53:49.269Z,21.61
2018-09-04T08:54:49.284Z,21.64
2018-09-04T08:55:49.292Z,21.49
2018-09-04T08:56:49.301Z,21.49
2018-09-04T08:57:49.299Z,21.72
2018-09-04T08:58:49.313Z,21.71
2018-09-04T08:59:49.314Z,21.71
2018-09-04T09:00:49.317Z,21.86
2018-09-04T09:01:49.336Z,21.84
2018-09-04T09:02:49.389Z,21.92
2018-09-04T09:03:49.436Z,21.84
2018-09-04T09:04:49.349Z,21.96
2018-09-04T09:05:49.354Z,21.92
2018-09-04T09:06:49.362Z,21.99
2018-09-04T09:07:49.369Z,22.03
2018-09-04T09:08:49.388Z,22.00
2018-09-04T09:09:49.402Z,22.10
2018-09-04T09:10:49.398Z,22.17
2018-09-04T09:11:49.410Z,22.20
2018-09-04T09:12:49.406Z,22.14
2018-09-04T09:13:49.424Z,22.09
2018-09-04T09:14:49.477Z,22.12
2018-09-04T09:15:50.494Z,22.06
2018-09-04T09:16:49.559Z,22.25
2018-09-04T09:17:49.517Z,22.42
2018-09-04T09:18:49.464Z,22.54
2018-09-04T09:19:49.466Z,22.58
2018-09-04T09:20:49.923Z,22.52
2018-09-04T09:21:52.563Z,22.61
2018-09-04T09:22:49.760Z,22.67
2018-09-04T09:23:49.500Z,22.77
2018-09-04T09:24:49.514Z,22.83
2018-09-04T09:25:49.513Z,22.79
2018-09-04T09:26:49.522Z,22.83
2018-09-04T09:27:49.526Z,22.77
2018-09-04T09:28:49.533Z,22.70
2018-09-04T09:29:49.546Z,22.54
2018-09-04T09:30:49.558Z,22.52
2018-09-04T09:31:49.559Z,22.64
2018-09-04T09:32:49.567Z,22.57
2018-09-04T09:33:49.575Z,22.55
2018-09-04T09:34:49.591Z,22.39
2018-09-04T09:35:49.588Z,22.21
2018-09-04T09:36:49.668Z,22.40
2018-09-04T09:37:49.681Z,22.52
2018-09-04T09:38:49.612Z,22.60
2018-09-04T09:39:49.626Z,22.65
2018-09-04T09:40:49.633Z,22.72
2018-09-04T09:41:49.671Z,22.72
2018-09-04T09:42:49.653Z,22.70
2018-09-04T09:43:49.694Z,22.80
2018-09-04T09:44:49.669Z,22.98
2018-09-04T09:45:49.678Z,22.91
2018-09-04T09:46:49.678Z,22.98
2018-09-04T09:47:49.680Z,22.86
2018-09-04T09:48:49.689Z,22.83
2018-09-04T09:49:49.697Z,22.83
2018-09-04T09:50:49.773Z,22.72
2018-09-04T09:51:49.716Z,22.82
2018-09-04T09:52:49.759Z,22.79
2018-09-04T09:53:49.733Z,22.95
2018-09-04T09:54:49.740Z,22.98
2018-09-04T09:55:49.766Z,22.92
2018-09-04T09:56:49.754Z,22.98
2018-09-04T09:57:49.760Z,22.97
2018-09-04T09:58:49.774Z,23.05
2018-09-04T09:59:49.800Z,23.00
2018-09-04T10:00:49.787Z,22.97
2018-09-04T10:01:49.792Z,23.01
2018-09-04T10:02:49.803Z,23.01
2018-09-04T10:03:49.871Z,23.20
2018-09-04T10:04:49.814Z,23.22
2018-09-04T10:05:49.858Z,23.25
2018-09-04T10:06:49.876Z,23.07
2018-09-04T10:07:49.910Z,23.05
2018-09-04T10:08:49.855Z,23.02
2018-09-04T10:09:49.889Z,23.09
2018-09-04T10:10:49.875Z,23.07
2018-09-04T10:11:49.880Z,23.32
2018-09-04T10:12:49.885Z,23.23
2018-09-04T10:13:49.893Z,23.23
2018-09-04T10:14:49.912Z,23.20
2018-09-04T10:15:49.917Z,23.25
2018-09-04T10:16:49.914Z,23.25
2018-09-04T10:17:49.929Z,23.32
2018-09-04T10:18:49.935Z,23.22
2018-09-04T10:19:49.960Z,23.36
2018-09-04T10:20:49.974Z,23.27
2018-09-04T10:21:49.975Z,23.43
2018-09-04T10:22:49.984Z,23.31
2018-09-04T10:23:49.979Z,23.31
2018-09-04T10:24:49.997Z,23.38
2018-09-04T10:25:49.995Z,23.36
2018-09-04T10:26:50.008Z,23.23
2018-09-04T10:27:50.010Z,23.28
2018-09-04T10:28:50.029Z,23.50
2018-09-04T10:29:50.022Z,23.50
2018-09-04T10:30:50.046Z,23.54
2018-09-04T10:31:50.039Z,23.40
2018-09-04T10:32:51.158Z,23.43
2018-09-04T10:33:50.066Z,23.53
2018-09-04T10:34:50.063Z,23.66
2018-09-04T10:35:50.079Z,23.61
2018-09-04T10:36:50.097Z,23.53
2018-09-04T10:37:50.099Z,23.68
2018-09-04T10:38:50.109Z,23.50
2018-09-04T10:39:50.111Z,23.48
2018-09-04T10:40:50.139Z,23.57
2018-09-04T10:41:50.128Z,23.68
2018-09-04T10:42:50.139Z,23.70
2018-09-04T10:43:50.141Z,23.53
2018-09-04T10:44:50.149Z,23.61
2018-09-04T10:45:50.160Z,23.72
2018-09-04T10:46:50.169Z,23.60
2018-09-04T10:47:50.174Z,23.50
2018-09-04T10:48:50.182Z,23.61
2018-09-04T10:49:50.191Z,23.58
2018-09-04T10:50:50.203Z,23.66
2018-09-04T10:51:50.208Z,23.70
2018-09-04T10:52:50.217Z,23.53
2018-09-04T10:53:50.226Z,23.70
2018-09-04T10:54:50.235Z,23.78
2018-09-04T10:55:50.292Z,23.85
2018-09-04T10:56:50.253Z,23.80
2018-09-04T10:57:50.382Z,23.87
2018-09-04T10:58:50.269Z,23.85
2018-09-04T10:59:50.279Z,23.83
2018-09-04T11:00:50.285Z,23.75
2018-09-04T11:01:50.293Z,23.84
2018-09-04T11:02:50.315Z,23.83
2018-09-04T11:03:50.315Z,23.85
2018-09-04T11:04:50.323Z,23.83
2018-09-04T11:05:50.335Z,23.80
2018-09-04T11:06:50.352Z,23.83
2018-09-04T11:07:50.350Z,23.88
2018-09-04T11:08:50.361Z,23.87
2018-09-04T11:09:50.531Z,24.03
2018-09-04T11:10:50.384Z,23.94
2018-09-04T11:11:50.396Z,23.85
2018-09-04T11:12:50.391Z,23.88
2018-09-04T11:13:50.408Z,23.93
2018-09-04T11:14:50.405Z,23.88
2018-09-04T11:15:50.416Z,23.87
2018-09-04T11:16:50.426Z,23.88
2018-09-04T11:17:50.435Z,24.03
2018-09-04T11:18:50.444Z,24.09
2018-09-04T11:19:50.454Z,24.15
2018-09-04T11:20:50.460Z,24.10
2018-09-04T11:21:50.470Z,24.10
2018-09-04T11:22:50.478Z,24.12
2018-09-04T11:23:50.532Z,24.21
2018-09-04T11:24:50.493Z,24.27
2018-09-04T11:25:50.502Z,24.31
2018-09-04T11:26:50.517Z,24.16
2018-09-04T11:27:50.533Z,24.28
2018-09-04T11:28:50.540Z,24.34
2018-09-04T11:29:50.550Z,24.47
2018-09-04T11:30:50.556Z,24.46
2018-09-04T11:31:50.559Z,24.45
2018-09-04T11:32:50.566Z,24.58
2018-09-04T11:33:50.578Z,24.61
2018-09-04T11:34:50.583Z,24.53
2018-09-04T11:35:50.595Z,24.50
2018-09-04T11:36:50.603Z,24.35
2018-09-04T11:37:50.614Z,24.45
2018-09-04T11:38:50.622Z,24.47
2018-09-04T11:39:50.630Z,24.62
2018-09-04T11:40:50.641Z,24.64
2018-09-04T11:41:50.651Z,24.64
2018-09-04T11:42:50.680Z,24.57
2018-09-04T11:43:50.674Z,24.65
2018-09-04T11:44:50.684Z,24.65
2018-09-04T11:45:50.692Z,24.67
2018-09-04T11:46:50.719Z,24.80
2018-09-04T11:47:50.705Z,24.84
2018-09-04T11:48:50.718Z,24.81
2018-09-04T11:49:50.721Z,24.78
2018-09-04T11:50:50.736Z,24.96
2018-09-04T11:51:50.747Z,25.08
2018-09-04T11:52:50.751Z,25.10
2018-09-04T11:53:50.763Z,25.03
2018-09-04T11:54:50.772Z,25.14
2018-09-04T11:55:50.781Z,25.05
2018-09-04T11:56:50.819Z,25.28
2018-09-04T11:57:50.814Z,25.21
2018-09-04T11:58:50.811Z,25.25
2018-09-04T11:59:50.826Z,25.18
2018-09-04T12:00:50.826Z,25.20
2018-09-04T12:01:50.840Z,25.20
2018-09-04T12:02:50.851Z,25.18
2018-09-04T12:03:50.860Z,25.25
2018-09-04T12:04:50.866Z,25.09
2018-09-04T12:05:50.891Z,25.08
2018-09-04T12:06:50.896Z,25.15
2018-09-04T12:07:50.895Z,25.14
2018-09-04T12:08:50.909Z,24.85
2018-09-04T12:09:50.918Z,24.64
2018-09-04T12:10:50.928Z,24.45
2018-09-04T12:11:50.934Z,24.78
2018-09-04T12:12:50.960Z,25.02
2018-09-04T12:13:50.955Z,24.96
2018-09-04T12:14:50.971Z,24.87
2018-09-04T12:15:50.978Z,25.02
2018-09-04T12:16:50.992Z,24.98
2018-09-04T12:17:51.003Z,25.02
2018-09-04T12:18:51.016Z,25.02
2018-09-04T12:19:51.013Z,25.05
2018-09-04T12:20:51.146Z,25.02
2018-09-04T12:21:51.033Z,25.14
2018-09-04T12:22:51.042Z,25.05
2018-09-04T12:23:52.024Z,25.13
2018-09-04T12:24:51.132Z,25.14
2018-09-04T12:25:51.087Z,25.09
2018-09-04T12:26:51.085Z,25.20
2018-09-04T12:27:51.099Z,25.00
2018-09-04T12:28:51.108Z,25.09
2018-09-04T12:29:51.114Z,25.15
2018-09-04T12:30:51.122Z,25.17
2018-09-04T12:31:51.132Z,25.25
2018-09-04T12:32:51.140Z,25.25
2018-09-04T12:33:51.182Z,25.15
2018-09-04T12:34:51.170Z,25.38
2018-09-04T12:35:51.174Z,25.05
2018-09-04T12:36:51.179Z,24.98
2018-09-04T12:37:51.198Z,25.15
2018-09-04T12:38:51.212Z,25.28
2018-09-04T12:39:51.219Z,25.36
2018-09-04T12:40:51.224Z,25.32
2018-09-04T12:41:51.240Z,25.50
2018-09-04T12:42:51.241Z,25.57
2018-09-04T12:43:51.251Z,25.47
2018-09-04T12:44:51.269Z,25.51
2018-09-04T12:45:51.272Z,25.55
2018-09-04T12:46:51.278Z,25.51
2018-09-04T12:47:51.292Z,25.46
2018-09-04T12:48:51.326Z,25.38
2018-09-04T12:49:51.312Z,25.52
2018-09-04T12:50:51.322Z,25.55
2018-09-04T12:51:51.327Z,25.58
2018-09-04T12:52:51.339Z,25.64
2018-09-04T12:53:51.352Z,25.65
2018-09-04T12:54:51.364Z,25.58
2018-09-04T12:55:51.369Z,25.60
2018-09-04T12:56:51.377Z,25.58
2018-09-04T12:57:51.394Z,25.70
2018-09-04T12:58:51.406Z,25.76
2018-09-04T12:59:51.487Z,25.65
2018-09-04T13:00:51.425Z,25.61
2018-09-04T13:01:51.436Z,25.58
2018-09-04T13:02:51.455Z,25.64
2018-09-04T13:03:51.455Z,25.65
2018-09-04T13:04:51.471Z,25.62
2018-09-04T13:05:51.479Z,25.50
2018-09-04T13:06:51.485Z,25.58
2018-09-04T13:07:51.492Z,25.65
2018-09-04T13:08:51.506Z,25.64
2018-09-04T13:09:51.510Z,25.79
2018-09-04T13:10:51.527Z,25.73
2018-09-04T13:11:51.532Z,25.73
2018-09-04T13:12:51.546Z,25.61
2018-09-04T13:13:51.558Z,25.54
2018-09-04T13:14:51.568Z,25.54
2018-09-04T13:15:51.580Z,25.55
2018-09-04T13:16:51.603Z,25.61
2018-09-04T13:17:51.599Z,25.58
2018-09-04T13:18:51.603Z,25.46
2018-09-04T13:19:51.612Z,25.57
2018-09-04T13:20:51.624Z,25.58
2018-09-04T13:21:51.635Z,25.62
2018-09-04T13:22:51.647Z,25.72
2018-09-04T13:23:51.656Z,25.47
2018-09-04T13:24:51.669Z,25.62
2018-09-04T13:25:51.676Z,25.65
2018-09-04T13:26:51.683Z,25.60
2018-09-04T13:27:51.712Z,25.57
2018-09-04T13:28:51.716Z,25.57
2018-09-04T13:29:51.712Z,25.61
2018-09-04T13:30:51.723Z,25.70
2018-09-04T13:31:51.738Z,25.58
2018-09-04T13:32:51.745Z,25.69
2018-09-04T13:33:51.756Z,25.73
2018-09-04T13:34:51.768Z,25.65
2018-09-04T13:35:51.774Z,25.51
2018-09-04T13:36:51.792Z,25.58
2018-09-04T13:37:51.802Z,25.64
2018-09-04T13:38:51.804Z,25.61
2018-09-04T13:39:51.817Z,25.35
2018-09-04T13:40:51.825Z,25.54
2018-09-04T13:41:51.849Z,25.69
2018-09-04T13:42:51.855Z,25.75
2018-09-04T13:43:51.858Z,25.92
2018-09-04T13:44:51.868Z,25.94
2018-09-04T13:45:51.903Z,25.98
2018-09-04T13:46:51.892Z,25.97
2018-09-04T13:47:51.899Z,26.05
2018-09-04T13:48:51.908Z,26.20
2018-09-04T13:49:51.925Z,26.21
2018-09-04T13:50:51.935Z,26.29
2018-09-04T13:51:51.945Z,26.33
2018-09-04T13:52:51.950Z,26.37
2018-09-04T13:53:51.965Z,26.37
2018-09-04T13:54:51.977Z,26.37
2018-09-04T13:55:51.986Z,26.29
2018-09-04T13:56:51.994Z,26.21
2018-09-04T13:57:52.013Z,26.28
2018-09-04T13:58:52.015Z,26.30
2018-09-04T13:59:52.027Z,26.55
2018-09-04T14:00:52.043Z,26.48
2018-09-04T14:01:52.055Z,26.43
2018-09-04T14:02:52.059Z,26.47
2018-09-04T14:03:52.073Z,26.33
2018-09-04T14:04:52.082Z,26.40
2018-09-04T14:05:52.089Z,26.40
2018-09-04T14:06:52.103Z,26.51
2018-09-04T14:07:52.126Z,26.51
2018-09-04T14:08:52.131Z,26.58
2018-09-04T14:09:52.134Z,26.54
2018-09-04T14:10:52.144Z,26.72
2018-09-04T14:11:52.155Z,26.67
2018-09-04T14:12:52.170Z,26.88
2018-09-04T14:13:52.199Z,26.99
2018-09-04T14:14:52.190Z,26.99
2018-09-04T14:15:52.199Z,27.07
2018-09-04T14:16:52.312Z,27.07
2018-09-04T14:17:52.220Z,27.17
2018-09-04T14:18:52.262Z,27.13
2018-09-04T14:19:52.257Z,27.09
2018-09-04T14:20:52.292Z,27.03
2018-09-04T14:21:52.268Z,27.07
2018-09-04T14:22:52.301Z,27.10
2018-09-04T14:23:52.295Z,27.10
2018-09-04T14:24:52.302Z,27.21
2018-09-04T14:25:52.310Z,27.25
2018-09-04T14:26:52.328Z,27.29
2018-09-04T14:27:52.337Z,27.25
2018-09-04T14:29:06.427Z,27.37
2018-09-04T14:29:53.967Z,27.36
2018-09-04T14:30:52.407Z,27.28
2018-09-04T14:31:52.381Z,27.13
2018-09-04T14:32:52.395Z,27.13
2018-09-04T14:33:52.406Z,27.03
2018-09-04T14:34:52.414Z,27.09
2018-09-04T14:35:52.477Z,27.17
2018-09-04T14:36:52.566Z,27.29
2018-09-04T14:37:52.455Z,27.10
2018-09-04T14:38:52.462Z,27.06
2018-09-04T14:39:55.593Z,27.22
2018-09-04T14:40:52.482Z,27.31
2018-09-04T14:41:52.496Z,27.36
2018-09-04T14:42:52.563Z,27.36
2018-09-04T14:43:52.521Z,27.55
2018-09-04T14:44:52.561Z,27.43
2018-09-04T14:45:52.542Z,27.59
2018-09-04T14:46:52.555Z,27.39
2018-09-04T14:47:52.623Z,27.28
2018-09-04T14:48:52.575Z,27.39
2018-09-04T14:49:52.586Z,27.27
2018-09-04T14:50:52.597Z,27.28
2018-09-04T14:51:52.612Z,27.40
2018-09-04T14:52:52.620Z,27.49
2018-09-04T14:53:52.645Z,27.47
2018-09-04T14:54:52.647Z,27.32
2018-09-04T14:55:52.651Z,27.43
2018-09-04T14:56:52.706Z,27.54
2018-09-04T14:57:52.683Z,27.54
2018-09-04T14:58:52.688Z,27.46
2018-09-04T14:59:52.728Z,27.25
2018-09-04T15:00:52.712Z,27.34
2018-09-04T15:01:52.720Z,27.37
2018-09-04T15:02:52.747Z,27.59
2018-09-04T15:03:52.753Z,27.39
2018-09-04T15:04:52.757Z,27.51
2018-09-04T15:05:52.766Z,27.51
2018-09-04T15:06:52.792Z,27.69
2018-09-04T15:07:52.807Z,27.70
2018-09-04T15:08:52.803Z,27.74
2018-09-04T15:09:52.813Z,27.72
2018-09-04T15:10:52.829Z,27.62
2018-09-04T15:11:52.838Z,27.36
2018-09-04T15:12:52.850Z,27.51
2018-09-04T15:13:52.861Z,27.66
2018-09-04T15:14:52.877Z,27.79
2018-09-04T15:15:52.897Z,27.82
2018-09-04T15:16:52.895Z,27.78
2018-09-04T15:17:52.908Z,27.82
2018-09-04T15:18:52.926Z,27.77
2018-09-04T15:19:52.934Z,27.75
2018-09-04T15:20:52.948Z,27.81
2018-09-04T15:21:52.953Z,27.82
2018-09-04T15:22:52.966Z,27.79
2018-09-04T15:23:52.979Z,27.67
2018-09-04T15:24:52.993Z,27.70
2018-09-04T15:25:53.001Z,27.84
2018-09-04T15:26:53.030Z,27.92
2018-09-04T15:27:53.025Z,27.88
2018-09-04T15:28:53.063Z,27.96
2018-09-04T15:29:53.055Z,27.78
2018-09-04T15:30:53.061Z,27.82
2018-09-04T15:31:53.075Z,27.85
2018-09-04T15:32:53.084Z,27.81
2018-09-04T15:33:53.096Z,27.66
2018-09-04T15:34:53.135Z,27.87
2018-09-04T15:35:53.119Z,27.93
2018-09-04T15:36:53.169Z,27.74
2018-09-04T15:37:53.146Z,27.87
2018-09-04T15:38:53.155Z,27.85
2018-09-04T15:39:53.168Z,27.82
2018-09-04T15:40:53.177Z,27.81
2018-09-04T15:41:53.190Z,27.88
2018-09-04T15:42:53.231Z,27.90
2018-09-04T15:43:53.221Z,27.85
2018-09-04T15:44:53.230Z,27.87
2018-09-04T15:45:53.261Z,27.81
2018-09-04T15:46:53.250Z,27.84
2018-09-04T15:47:53.262Z,27.84
2018-09-04T15:48:53.272Z,27.72
2018-09-04T15:49:53.289Z,27.62
2018-09-04T15:50:53.298Z,27.74
2018-09-04T15:51:53.306Z,27.60
2018-09-04T15:52:53.328Z,27.46
2018-09-04T15:53:53.336Z,27.40
2018-09-04T15:54:53.347Z,27.29
2018-09-04T15:55:53.360Z,27.37
2018-09-04T15:56:53.476Z,27.29
2018-09-04T15:57:53.380Z,27.39
2018-09-04T15:58:53.390Z,27.44
2018-09-04T15:59:53.404Z,27.54
2018-09-04T16:00:53.413Z,27.31
2018-09-04T16:01:53.424Z,27.29
2018-09-04T16:02:53.445Z,27.21
2018-09-04T16:03:53.448Z,26.94
2018-09-04T16:04:53.462Z,27.17
2018-09-04T16:05:53.475Z,27.09
2018-09-04T16:06:53.486Z,27.17
2018-09-04T16:07:53.492Z,27.22
2018-09-04T16:08:53.506Z,27.25
2018-09-04T16:09:53.616Z,27.29
2018-09-04T16:10:53.529Z,27.31
2018-09-04T16:11:53.539Z,27.31
2018-09-04T16:12:53.554Z,27.29
2018-09-04T16:13:53.563Z,27.28
2018-09-04T16:14:53.580Z,27.39
2018-09-04T16:15:53.590Z,27.27
2018-09-04T16:16:53.597Z,27.34
2018-09-04T16:17:53.613Z,27.36
2018-09-04T16:18:53.620Z,27.39
2018-09-04T16:19:53.703Z,27.34
2018-09-04T16:20:53.645Z,27.24
2018-09-04T16:21:53.654Z,27.24
2018-09-04T16:22:53.671Z,27.32
2018-09-04T16:23:53.681Z,27.28
2018-09-04T16:24:53.688Z,27.31
2018-09-04T16:25:53.703Z,27.31
2018-09-04T16:26:53.717Z,27.28
2018-09-04T16:27:53.727Z,27.29
2018-09-04T16:28:53.747Z,27.18
2018-09-04T16:29:53.766Z,27.19
2018-09-04T16:30:53.762Z,27.21
2018-09-04T16:31:53.770Z,27.13
2018-09-04T16:32:53.781Z,27.18
2018-09-04T16:33:53.796Z,27.10
2018-09-04T16:34:53.910Z,27.12
2018-09-04T16:35:53.824Z,27.04
2018-09-04T16:36:53.831Z,26.95
2018-09-04T16:37:53.859Z,26.95
2018-09-04T16:38:53.854Z,26.92
2018-09-04T16:39:53.887Z,26.94
2018-09-04T16:40:53.875Z,26.95
2018-09-04T16:41:53.886Z,26.94
2018-09-04T16:42:53.898Z,26.81
2018-09-04T16:43:53.908Z,26.87
2018-09-04T16:44:53.925Z,26.89
2018-09-04T16:45:53.933Z,26.88
2018-09-04T16:46:53.945Z,26.85
2018-09-04T16:47:53.954Z,26.81
2018-09-04T16:48:54.018Z,26.76
2018-09-04T16:49:53.974Z,26.76
2018-09-04T16:50:53.989Z,26.69
2018-09-04T16:51:53.997Z,26.62
2018-09-04T16:52:54.027Z,26.58
2018-09-04T16:53:54.025Z,26.54
2018-09-04T16:54:54.031Z,26.55
2018-09-04T16:55:54.042Z,26.54
2018-09-04T16:56:54.059Z,26.60
2018-09-04T16:57:54.066Z,26.51
2018-09-04T16:58:54.077Z,26.55
2018-09-04T16:59:54.089Z,26.48
2018-09-04T17:00:54.101Z,26.50
2018-09-04T17:01:54.123Z,26.44
2018-09-04T17:02:54.128Z,26.37
2018-09-04T17:03:54.136Z,26.35
2018-09-04T17:04:54.171Z,26.39
2018-09-04T17:05:54.157Z,26.33
2018-09-04T17:06:54.166Z,26.32
2018-09-04T17:07:54.177Z,26.37
2018-09-04T17:08:54.186Z,26.26
2018-09-04T17:09:54.200Z,26.28
2018-09-04T17:10:54.209Z,26.20
2018-09-04T17:11:54.219Z,26.23
2018-09-04T17:12:54.304Z,26.09
2018-09-04T17:13:54.245Z,26.09
2018-09-04T17:14:54.252Z,26.07
2018-09-04T17:15:54.261Z,25.98
2018-09-04T17:16:54.277Z,26.01
2018-09-04T17:17:54.288Z,25.95
2018-09-04T17:18:54.305Z,25.94
2018-09-04T17:19:54.304Z,26.01
2018-09-04T17:20:54.326Z,25.99
2018-09-04T17:21:54.329Z,25.87
2018-09-04T17:22:54.342Z,25.87
2018-09-04T17:23:54.358Z,25.87
2018-09-04T17:24:54.361Z,25.76
2018-09-04T17:25:54.415Z,25.79
2018-09-04T17:26:54.383Z,25.75
2018-09-04T17:27:54.392Z,25.77
2018-09-04T17:28:54.402Z,25.73
2018-09-04T17:29:54.438Z,25.76
2018-09-04T17:30:54.437Z,25.72
2018-09-04T17:31:54.466Z,25.75
2018-09-04T17:32:54.448Z,25.67
2018-09-04T17:33:54.463Z,25.55
2018-09-04T17:34:54.470Z,25.52
2018-09-04T17:35:54.478Z,25.50
2018-09-04T17:36:54.488Z,25.33
2018-09-04T17:37:54.498Z,25.33
2018-09-04T17:38:54.508Z,25.23
2018-09-04T17:39:54.520Z,25.36
2018-09-04T17:40:54.533Z,25.35
2018-09-04T17:41:54.548Z,25.30
2018-09-04T17:42:54.555Z,25.17
2018-09-04T17:43:54.559Z,25.17
2018-09-04T17:44:54.569Z,25.10
2018-09-04T17:45:54.581Z,25.03
2018-09-04T17:46:54.588Z,25.02
2018-09-04T17:47:54.607Z,25.06
2018-09-04T17:48:54.613Z,25.05
2018-09-04T17:49:54.627Z,25.00
2018-09-04T17:50:54.636Z,25.02
2018-09-04T17:51:54.645Z,24.98
2018-09-04T17:52:54.657Z,24.90
2018-09-04T17:53:54.661Z,24.90
2018-09-04T17:54:54.730Z,24.96
2018-09-04T17:55:54.688Z,24.78
2018-09-04T17:56:54.699Z,24.84
2018-09-04T17:58:09.623Z,24.84
2018-09-04T17:58:54.715Z,24.83
2018-09-04T17:59:54.721Z,24.78
2018-09-04T18:00:54.737Z,24.77
2018-09-04T18:01:54.750Z,24.77
2018-09-04T18:02:54.750Z,24.64
2018-09-04T18:03:54.760Z,24.68
2018-09-04T18:04:54.779Z,24.76
2018-09-04T18:05:54.808Z,24.65
2018-09-04T18:06:54.796Z,24.60
2018-09-04T18:07:54.802Z,24.58
2018-09-04T18:08:54.813Z,24.45
2018-09-04T18:09:54.820Z,24.45
2018-09-04T18:10:54.840Z,24.43
2018-09-04T18:11:54.851Z,24.45
2018-09-04T18:12:54.851Z,24.49
2018-09-04T18:13:54.861Z,24.34
2018-09-04T18:14:54.873Z,24.32
2018-09-04T18:15:54.877Z,24.18
2018-09-04T18:16:54.886Z,24.28
2018-09-04T18:17:54.904Z,24.24
2018-09-04T18:18:54.932Z,24.21
2018-09-04T18:19:54.922Z,24.06
2018-09-04T18:20:54.927Z,24.06
2018-09-04T18:21:54.934Z,24.02
2018-09-04T18:22:54.946Z,23.98
2018-09-04T18:23:54.953Z,24.06
2018-09-04T18:24:54.971Z,23.80
2018-09-04T18:25:54.974Z,23.87
2018-09-04T18:26:54.982Z,23.88
2018-09-04T18:27:54.994Z,23.90
2018-09-04T18:28:55.003Z,23.80
2018-09-04T18:29:55.024Z,23.83
2018-09-04T18:30:55.026Z,23.76
2018-09-04T18:31:55.038Z,23.79
2018-09-04T18:32:55.045Z,23.70
2018-09-04T18:33:55.051Z,23.68
2018-09-04T18:34:55.061Z,23.65
2018-09-04T18:35:55.080Z,23.57
2018-09-04T18:36:55.078Z,23.50
2018-09-04T18:37:55.089Z,23.48
2018-09-04T18:38:55.096Z,23.50
2018-09-04T18:39:57.645Z,23.55
2018-09-04T18:40:55.114Z,23.42
2018-09-04T18:41:55.126Z,23.51
2018-09-04T18:42:55.134Z,23.58
2018-09-04T18:43:55.141Z,23.42
2018-09-04T18:44:55.150Z,23.39
2018-09-04T18:45:55.164Z,23.43
2018-09-04T18:46:55.169Z,23.27
2018-09-04T18:47:55.193Z,23.13
2018-09-04T18:48:55.273Z,23.07
2018-09-04T18:49:55.207Z,23.19
2018-09-04T18:50:55.224Z,23.19
2018-09-04T18:51:55.227Z,23.17
2018-09-04T18:52:55.236Z,22.98
2018-09-04T18:53:55.255Z,23.09
2018-09-04T18:54:55.277Z,23.02
2018-09-04T18:55:55.254Z,22.97
2018-09-04T18:56:55.285Z,22.91
2018-09-04T18:57:55.283Z,22.94
2018-09-04T18:58:55.289Z,22.94
2018-09-04T18:59:55.290Z,22.80
2018-09-04T19:00:55.298Z,22.76
2018-09-04T19:01:55.317Z,22.72
2018-09-04T19:02:55.313Z,22.82
2018-09-04T19:03:55.327Z,22.73
2018-09-04T19:04:55.330Z,22.68
2018-09-04T19:05:55.340Z,22.68
2018-09-04T19:06:55.421Z,22.68
2018-09-04T19:07:56.382Z,22.65
2018-09-04T19:08:55.365Z,22.55
2018-09-04T19:09:55.372Z,22.45
2018-09-04T19:10:55.388Z,22.40
2018-09-04T19:11:55.397Z,22.39
2018-09-04T19:12:55.401Z,22.43
2018-09-04T19:13:55.421Z,22.46
2018-09-04T19:14:55.416Z,22.52
2018-09-04T19:15:55.434Z,22.43
2018-09-04T19:16:55.435Z,22.28
2018-09-04T19:17:55.442Z,22.28
2018-09-04T19:18:55.451Z,22.28
2018-09-04T19:19:55.458Z,22.25
2018-09-04T19:20:55.466Z,22.24
2018-09-04T19:21:55.481Z,22.14
2018-09-04T19:22:55.486Z,22.14
2018-09-04T19:23:55.490Z,22.14
2018-09-04T19:24:55.503Z,22.07
2018-09-04T19:25:55.508Z,22.10
2018-09-04T19:26:55.520Z,22.05
2018-09-04T19:27:55.526Z,22.12
2018-09-04T19:28:55.534Z,22.02
2018-09-04T19:29:55.543Z,21.96
2018-09-04T19:30:55.556Z,21.94
2018-09-04T19:31:55.563Z,21.82
2018-09-04T19:32:55.629Z,21.82
2018-09-04T19:33:55.581Z,21.83
2018-09-04T19:34:55.592Z,21.86
2018-09-04T19:35:55.593Z,21.72
2018-09-04T19:36:55.602Z,21.69
2018-09-04T19:37:55.613Z,21.72
2018-09-04T19:38:55.619Z,21.69
2018-09-04T19:39:55.629Z,21.53
2018-09-04T19:40:55.632Z,21.67
2018-09-04T19:41:55.641Z,21.59
2018-09-04T19:42:55.649Z,21.68
2018-09-04T19:43:55.656Z,21.68
2018-09-04T19:44:55.665Z,21.64
2018-09-04T19:45:55.674Z,21.64
2018-09-04T19:46:55.682Z,21.71
2018-09-04T19:47:55.689Z,21.74
2018-09-04T19:48:55.750Z,21.72
2018-09-04T19:49:55.794Z,21.69
2018-09-04T19:50:55.714Z,21.71
2018-09-04T19:51:55.720Z,21.74
2018-09-04T19:52:55.749Z,21.74
2018-09-04T19:53:55.739Z,21.71
2018-09-04T19:54:55.748Z,21.59
2018-09-04T19:55:55.752Z,21.58
2018-09-04T19:56:55.775Z,21.69
2018-09-04T19:57:55.768Z,21.58
2018-09-04T19:58:55.782Z,21.65
2018-09-04T19:59:55.790Z,21.72
2018-09-04T20:00:55.810Z,21.61
2018-09-04T20:01:55.805Z,21.82
2018-09-04T20:02:55.821Z,21.68
2018-09-04T20:03:55.819Z,21.62
2018-09-04T20:04:55.834Z,21.52
2018-09-04T20:05:56.864Z,21.49
2018-09-04T20:06:55.877Z,21.62
2018-09-04T20:07:55.850Z,21.58
2018-09-04T20:08:55.859Z,21.61
2018-09-04T20:09:55.866Z,21.58
2018-09-04T20:10:55.880Z,21.44
2018-09-04T20:11:55.882Z,21.54
2018-09-04T20:12:55.887Z,21.52
2018-09-04T20:13:55.901Z,21.46
2018-09-04T20:14:55.909Z,21.40
2018-09-04T20:15:55.916Z,21.46
2018-09-04T20:16:55.931Z,21.44
2018-09-04T20:17:55.931Z,21.53
2018-09-04T20:18:55.954Z,21.44
2018-09-04T20:19:55.944Z,21.42
2018-09-04T20:20:55.952Z,21.47
2018-09-04T20:21:55.961Z,21.35
2018-09-04T20:22:55.968Z,21.46
2018-09-04T20:23:55.973Z,21.52
2018-09-04T20:24:56.009Z,21.44
2018-09-04T20:25:55.989Z,21.35
2018-09-04T20:26:56.005Z,21.44
2018-09-04T20:27:56.017Z,21.47
2018-09-04T20:28:56.024Z,21.37
2018-09-04T20:29:56.032Z,21.42
2018-09-04T20:30:56.034Z,21.44
2018-09-04T20:31:56.043Z,21.35
2018-09-04T20:32:56.053Z,21.35
2018-09-04T20:33:56.063Z,21.34
2018-09-04T20:34:56.082Z,21.27
2018-09-04T20:35:56.083Z,21.34
2018-09-04T20:36:56.093Z,21.44
2018-09-04T20:37:56.097Z,21.40
2018-09-04T20:38:56.095Z,21.29
2018-09-04T20:39:56.160Z,21.22
2018-09-04T20:40:56.134Z,21.16
2018-09-04T20:41:56.124Z,21.21
2018-09-04T20:42:56.130Z,21.22
2018-09-04T20:43:56.135Z,21.19
2018-09-04T20:44:56.147Z,21.09
2018-09-04T20:45:56.149Z,20.99
2018-09-04T20:46:56.164Z,20.91
2018-09-04T20:47:56.172Z,21.13
2018-09-04T20:48:56.195Z,21.17
2018-09-04T20:49:56.182Z,21.10
2018-09-04T20:50:56.189Z,21.04
2018-09-04T20:51:56.208Z,21.12
2018-09-04T20:52:56.206Z,21.07
2018-09-04T20:53:56.207Z,21.03
2018-09-04T20:54:56.222Z,20.92
2018-09-04T20:55:56.227Z,20.76
2018-09-04T20:56:56.229Z,20.73
2018-09-04T20:57:56.262Z,20.85
2018-09-04T20:58:56.249Z,20.79
2018-09-04T20:59:56.287Z,20.76
2018-09-04T21:00:56.270Z,20.84
2018-09-04T21:01:56.265Z,20.66
2018-09-04T21:02:56.284Z,20.73
2018-09-04T21:03:56.279Z,20.76
2018-09-04T21:04:56.311Z,20.69
2018-09-04T21:05:56.299Z,20.72
2018-09-04T21:06:56.301Z,20.73